Aérodrome :
LOGIN :

S'inscrire | Disclaimer

   EN    FR    IT 

 










Légende :    VFR   VFR Marginal   IFR   IFR Intensif   IFR Très Intensif
Visi : 
Plafond : 
>= 8 km
>= 3000ft
5 à 8 km
1000 à 3000 ft
1500m à 5 km
500 à 1000 ft
800 à 1500m
200 à 500 ft
< 800m
< 200 ft
Symboles :   Orages  Brouillard  Fortes neiges  Fortes précipitations  Vent > 20 kt
SIGMETs :   Divers  Orages  Givrage  Turbulence  Onde Orograph.  Cendres Volcan.






- Altitude de l'aérodrome : 74 ft
- Code IATA : EIN


EHEH - Eindhoven

DERNIER METAR :
  • 041725Z AUTO 16007KT 9999 OVC210 05/00 Q0987 BLU NOSIG

METARs EXPIRÉS :
  • 041655Z AUTO 17007KT 140V200 9999 BKN210 05/00 Q0987 BLU NOSIG
  • 041625Z AUTO 17010KT 9999 FEW230 06/00 Q0986 BLU NOSIG
  • 041555Z AUTO 17010KT 140V220 9999 FEW037 06/01 Q0986 BLU NOSIG
  • 041525Z AUTO 17009KT 150V210 9999 SCT029 BKN036 BKN043 07/01 Q0986 BLU NOSIG
  • 041455Z AUTO 18010KT 9999 FEW038 SCT042 BKN047 07/01 Q0985 BLU NOSIG

TAF TAF EHEH
Valide du 04 à 18h jusqu'au 06 à 00h UTC


041715Z 0418/0524 17007KT CAVOK
TEMPO 0423/0505 11005KT
BECMG 0518/0520 09005KT



MET'MAP, la Météo Aéronautique d'un coup d'oeil ! - Copyright ORBIFLY Décembre 2007 - Disclaimer

ORBIFLY MET'MAP TEAM :

Programmation & Développement : Alexandra Zaïnal
Sur une idée originale de : Baudouin d'Aumeries
Assistance à la programmation : Marc-Olivier Méhu
Soutien technique & logistique : Manuel Goepfert

Contact : metmap@orbifly.com




SOURCES & CREDITS :

   NOAA